createdAt,value
2023-05-16T00:01:01.458Z,99255.09
2023-05-16T00:03:28.044Z,99250.88
2023-05-16T00:05:56.264Z,99251.22
2023-05-16T00:08:22.886Z,99262.66
2023-05-16T00:10:49.288Z,99250.38
2023-05-16T00:13:16.179Z,99254.59
2023-05-16T00:15:44.370Z,99250.69
2023-05-16T00:18:14.689Z,99253.78
2023-05-16T00:20:42.085Z,99245.91
2023-05-16T00:23:08.624Z,99253.53
2023-05-16T00:25:36.401Z,99254.66
2023-05-16T00:28:03.028Z,99245.06
2023-05-16T00:30:29.829Z,99256.50
2023-05-16T00:32:56.509Z,99263.19
2023-05-16T00:35:23.154Z,99255.00
2023-05-16T00:37:50.998Z,99259.38
2023-05-16T00:40:17.439Z,99267.09
2023-05-16T00:42:43.941Z,99263.53
2023-05-16T00:45:12.015Z,99280.03
2023-05-16T00:47:38.534Z,99271.31
2023-05-16T00:50:06.063Z,99271.09
2023-05-16T00:52:33.633Z,99276.31
2023-05-16T00:55:00.564Z,99276.13
2023-05-16T00:57:27.647Z,99271.94
2023-05-16T00:59:54.959Z,99273.78
2023-05-16T01:02:21.914Z,99273.63
2023-05-16T01:04:49.540Z,99278.59
2023-05-16T01:07:15.957Z,99275.31
2023-05-16T01:09:42.526Z,99275.72
2023-05-16T01:12:24.216Z,99272.09
2023-05-16T01:15:05.072Z,99270.41
2023-05-16T01:17:57.438Z,99272.94
2023-05-16T01:20:45.948Z,99269.69
2023-05-16T01:23:31.017Z,99273.63
2023-05-16T01:26:23.223Z,99268.59
2023-05-16T01:28:51.260Z,99272.94
2023-05-16T01:31:18.648Z,99275.06
2023-05-16T01:33:45.417Z,99282.28
2023-05-16T01:36:41.647Z,99275.75
2023-05-16T01:39:26.923Z,99284.25
2023-05-16T01:42:09.059Z,99275.75
2023-05-16T01:44:43.304Z,99276.91
2023-05-16T01:47:12.896Z,99283.41
2023-05-16T01:49:46.383Z,99285.09
2023-05-16T01:52:20.313Z,99284.22
2023-05-16T01:54:49.667Z,99284.81
2023-05-16T01:57:17.241Z,99282.56
2023-05-16T01:59:45.776Z,99289.91
2023-05-16T02:02:12.162Z,99286.34
2023-05-16T02:04:39.729Z,99286.53
2023-05-16T02:07:06.303Z,99287.22
2023-05-16T02:09:32.836Z,99288.50
2023-05-16T02:12:00.292Z,99294.69
2023-05-16T02:14:26.965Z,99297.97
2023-05-16T02:16:53.467Z,99295.28
2023-05-16T02:19:21.041Z,99301.19
2023-05-16T02:21:47.451Z,99299.22
2023-05-16T02:24:14.257Z,99308.00
2023-05-16T02:26:41.035Z,99304.31
2023-05-16T02:29:07.580Z,99314.06
2023-05-16T02:31:34.933Z,99318.72
2023-05-16T02:34:01.679Z,99320.41
2023-05-16T02:36:28.407Z,99317.44
2023-05-16T02:38:54.844Z,99320.97
2023-05-16T02:41:22.231Z,99329.72
2023-05-16T02:43:49.578Z,99320.41
2023-05-16T02:46:33.620Z,99334.53
2023-05-16T02:49:00.603Z,99339.72
2023-05-16T02:51:28.878Z,99343.56
2023-05-16T02:53:59.945Z,99341.03
2023-05-16T02:56:26.565Z,99338.63
2023-05-16T02:58:54.409Z,99343.25
2023-05-16T03:01:21.133Z,99343.16
2023-05-16T03:03:47.827Z,99343.66
2023-05-16T03:06:14.431Z,99348.34
2023-05-16T03:08:41.841Z,99352.16
2023-05-16T03:11:08.252Z,99349.16
2023-05-16T03:13:35.111Z,99351.41
2023-05-16T03:16:02.111Z,99349.44
2023-05-16T03:18:28.665Z,99355.38
2023-05-16T03:20:55.431Z,99359.19
2023-05-16T03:23:22.379Z,99353.41
2023-05-16T03:25:49.041Z,99350.56
2023-05-16T03:28:16.941Z,99362.09
2023-05-16T03:30:43.756Z,99366.06
2023-05-16T03:33:10.312Z,99360.56
2023-05-16T03:35:37.064Z,99374.09
2023-05-16T03:38:03.844Z,99366.84
2023-05-16T03:40:32.999Z,99362.78
2023-05-16T03:42:59.430Z,99367.69
2023-05-16T03:45:26.668Z,99375.16
2023-05-16T03:47:53.602Z,99380.06
2023-05-16T03:50:20.043Z,99386.44
2023-05-16T03:52:46.521Z,99395.19
2023-05-16T03:55:14.999Z,99401.66
2023-05-16T03:57:44.873Z,99407.41
2023-05-16T04:00:12.853Z,99406.53
2023-05-16T04:02:44.428Z,99416.06
2023-05-16T04:05:12.472Z,99414.63
2023-05-16T04:07:39.425Z,99427.31
2023-05-16T04:10:06.542Z,99419.94
2023-05-16T04:12:33.418Z,99430.97
2023-05-16T04:14:59.845Z,99427.41
2023-05-16T04:17:26.815Z,99439.31
2023-05-16T04:19:53.308Z,99439.88
2023-05-16T04:22:22.832Z,99433.59
2023-05-16T04:24:49.885Z,99446.19
2023-05-16T04:27:16.559Z,99436.56
2023-05-16T04:29:43.106Z,99443.88
2023-05-16T04:32:09.870Z,99443.63
2023-05-16T04:34:39.876Z,99448.41
2023-05-16T04:37:07.640Z,99450.44
2023-05-16T04:39:35.704Z,99454.59
2023-05-16T04:42:04.275Z,99450.47
2023-05-16T04:44:31.008Z,99456.19
2023-05-16T04:46:57.761Z,99458.88
2023-05-16T04:49:24.322Z,99469.84
2023-05-16T04:51:50.914Z,99475.56
2023-05-16T04:54:17.400Z,99473.84
2023-05-16T04:56:43.939Z,99480.91
2023-05-16T04:59:10.674Z,99484.44
2023-05-16T05:01:37.245Z,99482.34
2023-05-16T05:04:04.332Z,99487.69
2023-05-16T05:06:31.462Z,99489.41
2023-05-16T05:08:58.316Z,99487.44
2023-05-16T05:11:24.940Z,99497.19
2023-05-16T05:13:52.979Z,99497.34
2023-05-16T05:16:19.616Z,99503.28
2023-05-16T05:18:46.158Z,99504.56
2023-05-16T05:21:12.671Z,99508.00
2023-05-16T05:23:40.305Z,99513.00
2023-05-16T05:26:06.825Z,99514.19
2023-05-16T05:28:33.672Z,99518.41
2023-05-16T05:31:00.528Z,99518.06
2023-05-16T05:33:29.261Z,99520.16
2023-05-16T05:35:56.030Z,99517.59
2023-05-16T05:38:23.149Z,99516.38
2023-05-16T05:40:49.760Z,99524.00
2023-05-16T05:43:16.198Z,99528.28
2023-05-16T05:45:44.488Z,99538.25
2023-05-16T05:48:12.812Z,99539.94
2023-05-16T05:50:40.082Z,99531.91
2023-05-16T05:53:06.693Z,99529.72
2023-05-16T05:55:33.283Z,99529.72
2023-05-16T05:57:59.765Z,99534.94
2023-05-16T06:00:26.377Z,99539.94
2023-05-16T06:02:53.385Z,99547.59
2023-05-16T06:05:20.179Z,99539.47
2023-05-16T06:07:46.580Z,99548.19
2023-05-16T06:10:13.151Z,99551.16
2023-05-16T06:12:39.545Z,99557.22
2023-05-16T06:15:06.697Z,99567.22
2023-05-16T06:17:33.642Z,99562.09
2023-05-16T06:20:00.142Z,99565.06
2023-05-16T06:22:26.860Z,99572.81
2023-05-16T06:24:53.380Z,99574.50
2023-05-16T06:27:20.144Z,99576.22
2023-05-16T06:29:46.659Z,99584.59
2023-05-16T06:32:13.632Z,99584.84
2023-05-16T06:34:40.090Z,99593.13
2023-05-16T06:37:06.708Z,99602.47
2023-05-16T06:39:33.664Z,99594.31
2023-05-16T06:42:00.110Z,99592.03
2023-05-16T06:44:27.887Z,99601.50
2023-05-16T06:46:54.405Z,99600.19
2023-05-16T06:49:21.212Z,99600.53
2023-05-16T06:51:47.765Z,99607.84
2023-05-16T06:54:14.182Z,99601.50
2023-05-16T06:56:40.749Z,99596.84
2023-05-16T06:59:07.436Z,99593.44
2023-05-16T07:01:33.966Z,99595.75
2023-05-16T07:04:00.467Z,99583.19
2023-05-16T07:06:27.144Z,99576.09
2023-05-16T07:08:53.580Z,99576.03
2023-05-16T07:11:20.430Z,99580.50
2023-05-16T07:13:47.275Z,99589.00
2023-05-16T07:16:13.834Z,99589.53
2023-05-16T07:18:40.708Z,99586.03
2023-05-16T07:21:08.159Z,99590.41
2023-05-16T07:23:34.611Z,99595.28
2023-05-16T07:26:01.123Z,99596.13
2023-05-16T07:28:27.560Z,99599.53
2023-05-16T07:30:55.072Z,99594.66
2023-05-16T07:33:21.478Z,99599.41
2023-05-16T07:35:48.206Z,99590.94
2023-05-16T07:38:15.029Z,99588.88
2023-05-16T07:40:41.864Z,99595.28
2023-05-16T07:43:08.435Z,99580.88
2023-05-16T07:45:35.509Z,99576.72
2023-05-16T07:48:02.032Z,99574.72
2023-05-16T07:50:29.104Z,99582.50
2023-05-16T07:52:55.731Z,99588.53
2023-05-16T07:55:22.238Z,99593.38
2023-05-16T07:57:50.210Z,99594.75
2023-05-16T08:00:17.782Z,99609.25
2023-05-16T08:02:44.593Z,99585.78
2023-05-16T08:05:11.286Z,99584.47
2023-05-16T08:07:37.793Z,99587.19
2023-05-16T08:10:04.912Z,99588.66
2023-05-16T08:12:31.986Z,99577.75
2023-05-16T08:14:58.432Z,99581.88
2023-05-16T08:17:24.937Z,99587.47
2023-05-16T08:19:51.397Z,99592.91
2023-05-16T08:22:18.041Z,99589.50
2023-05-16T08:24:44.858Z,99587.84
2023-05-16T08:27:12.124Z,99585.13
2023-05-16T08:29:38.570Z,99589.16
2023-05-16T08:32:06.501Z,99588.69
2023-05-16T08:34:33.769Z,99592.03
2023-05-16T08:37:00.488Z,99587.50
2023-05-16T08:39:27.514Z,99591.88
2023-05-16T08:41:54.119Z,99583.81
2023-05-16T08:44:22.069Z,99582.16
2023-05-16T08:46:56.586Z,99566.63
2023-05-16T08:49:26.840Z,99569.53
2023-05-16T08:51:58.584Z,99573.50
2023-05-16T08:54:27.442Z,99569.00
2023-05-16T08:56:55.173Z,99569.72
2023-05-16T08:59:21.757Z,99562.09
2023-05-16T09:01:48.985Z,99574.97
2023-05-16T09:04:16.327Z,99551.78
2023-05-16T09:06:43.412Z,99563.53
2023-05-16T09:09:12.803Z,99571.56
2023-05-16T09:11:39.713Z,99569.41
2023-05-16T09:14:06.243Z,99570.72
2023-05-16T09:16:32.786Z,99561.28
2023-05-16T09:19:02.120Z,99566.88
2023-05-16T09:21:32.870Z,99557.28
2023-05-16T09:24:10.115Z,99557.69
2023-05-16T09:26:38.923Z,99559.06
2023-05-16T09:29:12.801Z,99567.84
2023-05-16T09:31:40.068Z,99565.84
2023-05-16T09:34:08.954Z,99572.09
2023-05-16T09:36:36.416Z,99575.47
2023-05-16T09:39:05.807Z,99578.34
2023-05-16T09:41:36.394Z,99569.75
2023-05-16T09:44:06.958Z,99570.69
2023-05-16T09:46:38.434Z,99568.47
2023-05-16T09:49:05.020Z,99564.00
2023-05-16T09:51:31.996Z,99557.19
2023-05-16T09:54:00.210Z,99559.94
2023-05-16T09:56:27.181Z,99554.69
2023-05-16T09:58:54.074Z,99561.38
2023-05-16T10:01:20.807Z,99566.34
2023-05-16T10:03:47.870Z,99565.94
2023-05-16T10:06:16.544Z,99559.28
2023-05-16T10:08:44.021Z,99554.84
2023-05-16T10:11:11.671Z,99570.06
2023-05-16T10:13:39.094Z,99570.47
2023-05-16T10:16:12.607Z,99568.41
2023-05-16T10:18:42.577Z,99575.81
2023-05-16T10:21:13.739Z,99566.69
2023-05-16T10:23:47.414Z,99559.75
2023-05-16T10:26:16.644Z,99562.53
2023-05-16T10:28:43.478Z,99548.63
2023-05-16T10:31:11.872Z,99544.75
2023-05-16T10:33:40.157Z,99548.03
2023-05-16T10:36:09.019Z,99556.78
2023-05-16T10:38:37.947Z,99569.59
2023-05-16T10:41:05.042Z,99557.38
2023-05-16T10:43:33.322Z,99561.59
2023-05-16T10:46:04.712Z,99563.63
2023-05-16T10:48:36.683Z,99566.81
2023-05-16T10:51:04.880Z,99566.00
2023-05-16T10:53:34.334Z,99548.09
2023-05-16T10:56:03.648Z,99566.91
2023-05-16T10:58:39.393Z,99554.94
2023-05-16T11:01:32.754Z,99561.00
2023-05-16T11:04:02.539Z,99559.25
2023-05-16T11:06:34.360Z,99564.13
2023-05-16T11:09:06.837Z,99558.72
2023-05-16T11:11:49.358Z,99556.19
2023-05-16T11:14:34.967Z,99555.34
2023-05-16T11:17:06.604Z,99555.72
2023-05-16T11:19:47.958Z,99559.09
2023-05-16T11:22:23.797Z,99551.09
2023-05-16T11:24:52.478Z,99558.75
2023-05-16T11:27:24.213Z,99561.50
2023-05-16T11:29:51.410Z,99566.59
2023-05-16T11:32:23.281Z,99548.47
2023-05-16T11:34:51.867Z,99550.63
2023-05-16T11:37:20.434Z,99538.34
2023-05-16T11:39:47.399Z,99545.50
2023-05-16T11:42:13.972Z,99547.28
2023-05-16T11:44:41.153Z,99548.81
2023-05-16T11:47:08.379Z,99549.00
2023-05-16T11:49:35.589Z,99568.47
2023-05-16T11:52:03.144Z,99553.22
2023-05-16T11:54:30.737Z,99547.28
2023-05-16T11:56:57.551Z,99552.53
2023-05-16T11:59:24.295Z,99557.97
2023-05-16T12:01:50.732Z,99562.97
2023-05-16T12:04:18.165Z,99556.28
2023-05-16T12:06:45.075Z,99557.59
2023-05-16T12:09:18.242Z,99550.75
2023-05-16T12:11:45.272Z,99543.69
2023-05-16T12:14:13.489Z,99548.53
2023-05-16T12:16:44.271Z,99550.34
2023-05-16T12:19:11.685Z,99555.50
2023-05-16T12:21:39.069Z,99544.56
2023-05-16T12:24:09.176Z,99539.78
2023-05-16T12:26:35.822Z,99544.88
2023-05-16T12:29:06.156Z,99543.13
2023-05-16T12:31:37.029Z,99543.59
2023-05-16T12:34:03.544Z,99539.69
2023-05-16T12:36:36.730Z,99551.72
2023-05-16T12:39:04.253Z,99550.53
2023-05-16T12:41:31.622Z,99538.53
2023-05-16T12:44:12.557Z,99544.41
2023-05-16T12:46:46.957Z,99548.13
2023-05-16T12:49:13.923Z,99537.00
2023-05-16T12:51:41.427Z,99540.31
2023-05-16T12:54:11.830Z,99538.31
2023-05-16T12:56:40.061Z,99538.31
2023-05-16T12:59:06.995Z,99535.44
2023-05-16T13:01:35.322Z,99536.25
2023-05-16T13:04:05.868Z,99541.75
2023-05-16T13:06:48.936Z,99540.94
2023-05-16T13:09:19.279Z,99545.72
2023-05-16T13:11:45.922Z,99540.75
2023-05-16T13:14:12.932Z,99548.72
2023-05-16T13:16:39.775Z,99552.84
2023-05-16T13:19:08.168Z,99546.47
2023-05-16T13:21:34.680Z,99545.44
2023-05-16T13:24:01.287Z,99552.88
2023-05-16T13:26:28.243Z,99546.44
2023-05-16T13:28:55.093Z,99547.75
2023-05-16T13:31:25.336Z,99558.00
2023-05-16T13:33:52.030Z,99565.41
2023-05-16T13:36:18.472Z,99556.59
2023-05-16T13:38:44.964Z,99562.66
2023-05-16T13:41:12.914Z,99550.44
2023-05-16T13:43:39.349Z,99551.88
2023-05-16T13:46:06.091Z,99554.13
2023-05-16T13:48:33.158Z,99544.47
2023-05-16T13:50:59.693Z,99550.44
2023-05-16T13:53:26.723Z,99559.63
2023-05-16T13:55:53.300Z,99576.84
2023-05-16T13:58:20.235Z,99573.53
2023-05-16T14:00:48.406Z,99570.81
2023-05-16T14:03:15.572Z,99575.00
2023-05-16T14:05:42.378Z,99573.66
2023-05-16T14:08:08.985Z,99571.16
2023-05-16T14:10:35.604Z,99572.63
2023-05-16T14:13:02.445Z,99573.34
2023-05-16T14:15:29.155Z,99581.56
2023-05-16T14:17:55.873Z,99573.47
2023-05-16T14:20:22.893Z,99571.47
2023-05-16T14:22:49.325Z,99570.09
2023-05-16T14:25:16.078Z,99562.66
2023-05-16T14:27:42.476Z,99561.47
2023-05-16T14:30:09.623Z,99567.78
2023-05-16T14:32:36.319Z,99564.03
2023-05-16T14:35:05.261Z,99566.25
2023-05-16T14:37:31.818Z,99551.66
2023-05-16T14:39:59.650Z,99546.66
2023-05-16T14:42:26.495Z,99566.69
2023-05-16T14:44:53.100Z,99560.81
2023-05-16T14:47:20.175Z,99568.94
2023-05-16T14:49:46.734Z,99562.34
2023-05-16T14:52:13.628Z,99563.22
2023-05-16T14:54:40.547Z,99567.13
2023-05-16T14:57:07.358Z,99564.72
2023-05-16T14:59:34.175Z,99571.81
2023-05-16T15:02:00.850Z,99562.00
2023-05-16T15:04:29.242Z,99575.69
2023-05-16T15:06:56.816Z,99560.63
2023-05-16T15:09:23.260Z,99574.53
2023-05-16T15:11:51.198Z,99576.56
2023-05-16T15:14:18.172Z,99575.72
2023-05-16T15:16:44.803Z,99572.13
2023-05-16T15:19:11.568Z,99585.28
2023-05-16T15:21:38.379Z,99576.50
2023-05-16T15:24:05.198Z,99582.75
2023-05-16T15:26:32.634Z,99581.44
2023-05-16T15:28:59.218Z,99571.44
2023-05-16T15:31:26.310Z,99582.44
2023-05-16T15:33:52.825Z,99577.59
2023-05-16T15:36:19.566Z,99577.97
2023-05-16T15:38:47.521Z,99571.91
2023-05-16T15:41:22.311Z,99578.41
2023-05-16T15:43:58.231Z,99586.19
2023-05-16T15:46:24.732Z,99589.03
2023-05-16T15:48:51.327Z,99589.03
2023-05-16T15:51:17.748Z,99590.06
2023-05-16T15:53:45.036Z,99594.75
2023-05-16T15:56:12.320Z,99595.38
2023-05-16T15:58:38.931Z,99592.66
2023-05-16T16:01:05.878Z,99595.97
2023-05-16T16:03:32.965Z,99595.63
2023-05-16T16:05:59.479Z,99596.31
2023-05-16T16:08:25.997Z,99598.63
2023-05-16T16:10:52.906Z,99600.56
2023-05-16T16:13:19.457Z,99605.41
2023-05-16T16:15:46.414Z,99614.97
2023-05-16T16:18:13.899Z,99605.56
2023-05-16T16:20:41.017Z,99611.25
2023-05-16T16:23:08.108Z,99619.13
2023-05-16T16:25:34.821Z,99610.72
2023-05-16T16:28:01.801Z,99611.50
2023-05-16T16:30:28.231Z,99617.66
2023-05-16T16:32:54.759Z,99616.59
2023-05-16T16:35:22.457Z,99622.28
2023-05-16T16:38:02.372Z,99616.50
2023-05-16T16:40:32.504Z,99617.88
2023-05-16T16:42:59.366Z,99629.75
2023-05-16T16:45:27.292Z,99626.66
2023-05-16T16:47:54.096Z,99624.50
2023-05-16T16:50:20.616Z,99621.34
2023-05-16T16:52:47.711Z,99613.06
2023-05-16T16:55:14.869Z,99628.75
2023-05-16T16:57:42.843Z,99624.50
2023-05-16T17:00:11.430Z,99625.91
2023-05-16T17:02:38.218Z,99623.72
2023-05-16T17:05:08.649Z,99629.78
2023-05-16T17:07:35.566Z,99634.25
2023-05-16T17:10:04.633Z,99642.16
2023-05-16T17:12:34.599Z,99637.00
2023-05-16T17:15:01.860Z,99651.88
2023-05-16T17:17:29.028Z,99656.88
2023-05-16T17:19:55.713Z,99643.53
2023-05-16T17:22:22.445Z,99655.59
2023-05-16T17:24:49.390Z,99655.50
2023-05-16T17:27:15.933Z,99656.72
2023-05-16T17:29:42.471Z,99659.19
2023-05-16T17:32:09.197Z,99662.25
2023-05-16T17:34:35.886Z,99656.94
2023-05-16T17:37:04.297Z,99665.78
2023-05-16T17:39:32.043Z,99680.19
2023-05-16T17:41:59.628Z,99674.63
2023-05-16T17:44:26.236Z,99676.78
2023-05-16T17:46:53.640Z,99669.66
2023-05-16T17:49:21.420Z,99670.38
2023-05-16T17:51:56.383Z,99684.03
2023-05-16T17:54:24.011Z,99688.88
2023-05-16T17:56:51.136Z,99696.28
2023-05-16T17:59:17.877Z,99690.03
2023-05-16T18:01:45.066Z,99684.09
2023-05-16T18:04:12.251Z,99688.88
2023-05-16T18:06:39.163Z,99685.94
2023-05-16T18:09:07.314Z,99690.34
2023-05-16T18:11:34.341Z,99699.69
2023-05-16T18:14:02.317Z,99697.72
2023-05-16T18:16:30.613Z,99705.06
2023-05-16T18:18:58.621Z,99698.44
2023-05-16T18:21:27.627Z,99698.84
2023-05-16T18:23:56.479Z,99702.53
2023-05-16T18:26:24.550Z,99704.94
2023-05-16T18:28:51.098Z,99707.63
2023-05-16T18:31:17.684Z,99705.38
2023-05-16T18:33:44.359Z,99708.06
2023-05-16T18:36:10.804Z,99709.63
2023-05-16T18:38:37.687Z,99705.78
2023-05-16T18:41:04.279Z,99710.47
2023-05-16T18:43:30.998Z,99709.31
2023-05-16T18:45:57.817Z,99714.41
2023-05-16T18:48:24.482Z,99720.63
2023-05-16T18:50:51.322Z,99723.03
2023-05-16T18:53:17.950Z,99726.28
2023-05-16T18:55:44.417Z,99730.25
2023-05-16T18:58:11.454Z,99732.94
2023-05-16T19:00:37.951Z,99729.69
2023-05-16T19:03:04.869Z,99744.09
2023-05-16T19:05:33.781Z,99739.81
2023-05-16T19:08:01.012Z,99746.72
2023-05-16T19:10:27.748Z,99746.59
2023-05-16T19:12:54.632Z,99751.09
2023-05-16T19:15:21.089Z,99754.75
2023-05-16T19:17:48.221Z,99760.38
2023-05-16T19:20:15.092Z,99761.97
2023-05-16T19:22:41.528Z,99764.06
2023-05-16T19:25:08.861Z,99758.91
2023-05-16T19:27:39.737Z,99767.09
2023-05-16T19:30:07.512Z,99773.91
2023-05-16T19:32:34.014Z,99771.63
2023-05-16T19:35:01.023Z,99777.56
2023-05-16T19:37:27.565Z,99773.47
2023-05-16T19:39:54.065Z,99783.19
2023-05-16T19:42:20.788Z,99784.84
2023-05-16T19:44:47.418Z,99789.50
2023-05-16T19:47:14.886Z,99794.03
2023-05-16T19:49:41.766Z,99802.34
2023-05-16T19:52:09.150Z,99797.25
2023-05-16T19:54:36.074Z,99793.84
2023-05-16T19:57:02.524Z,99800.19
2023-05-16T19:59:29.400Z,99808.75
2023-05-16T20:01:55.840Z,99802.16
2023-05-16T20:04:22.506Z,99798.41
2023-05-16T20:06:49.579Z,99800.91
2023-05-16T20:09:16.364Z,99802.34
2023-05-16T20:11:43.650Z,99807.41
2023-05-16T20:14:10.201Z,99806.00
2023-05-16T20:16:37.253Z,99811.91
2023-05-16T20:19:04.289Z,99801.06
2023-05-16T20:21:31.030Z,99813.25
2023-05-16T20:23:57.702Z,99817.53
2023-05-16T20:26:24.340Z,99822.78
2023-05-16T20:28:50.924Z,99815.56
2023-05-16T20:31:17.393Z,99819.44
2023-05-16T20:33:44.274Z,99819.69
2023-05-16T20:36:10.869Z,99816.06
2023-05-16T20:38:38.704Z,99818.03
2023-05-16T20:41:05.387Z,99830.22
2023-05-16T20:43:31.820Z,99825.09
2023-05-16T20:45:58.313Z,99824.19
2023-05-16T20:48:27.152Z,99831.19
2023-05-16T20:50:54.749Z,99823.94
2023-05-16T20:53:21.905Z,99832.94
2023-05-16T20:55:48.450Z,99829.31
2023-05-16T20:58:15.756Z,99837.06
2023-05-16T21:00:42.220Z,99823.94
2023-05-16T21:03:09.340Z,99823.66
2023-05-16T21:05:36.304Z,99828.44
2023-05-16T21:08:04.807Z,99829.16
2023-05-16T21:10:31.637Z,99827.47
2023-05-16T21:12:58.367Z,99835.25
2023-05-16T21:15:25.856Z,99825.63
2023-05-16T21:17:52.560Z,99832.38
2023-05-16T21:20:19.331Z,99828.09
2023-05-16T21:22:45.817Z,99830.41
2023-05-16T21:25:12.564Z,99838.56
2023-05-16T21:27:39.856Z,99836.56
2023-05-16T21:30:07.568Z,99843.00
2023-05-16T21:32:34.044Z,99843.34
2023-05-16T21:35:00.995Z,99840.31
2023-05-16T21:37:27.901Z,99844.38
2023-05-16T21:39:54.770Z,99845.50
2023-05-16T21:42:21.236Z,99852.16
2023-05-16T21:44:48.042Z,99851.47
2023-05-16T21:47:14.531Z,99854.16
2023-05-16T21:49:41.159Z,99866.38
2023-05-16T21:52:07.978Z,99862.25
2023-05-16T21:54:34.967Z,99858.59
2023-05-16T21:57:01.473Z,99861.03
2023-05-16T21:59:28.183Z,99867.41
2023-05-16T22:01:54.607Z,99869.09
2023-05-16T22:04:21.333Z,99868.22
2023-05-16T22:06:48.286Z,99875.16
2023-05-16T22:09:14.771Z,99872.00
2023-05-16T22:11:41.512Z,99875.53
2023-05-16T22:14:07.935Z,99879.44
2023-05-16T22:16:34.766Z,99883.19
2023-05-16T22:19:01.319Z,99881.19
2023-05-16T22:21:28.014Z,99888.56
2023-05-16T22:23:54.426Z,99881.84
2023-05-16T22:26:22.092Z,99895.09
2023-05-16T22:28:48.587Z,99883.28
2023-05-16T22:31:15.307Z,99892.47
2023-05-16T22:33:42.036Z,99889.28
2023-05-16T22:36:08.810Z,99893.19
2023-05-16T22:38:35.544Z,99900.69
2023-05-16T22:41:01.940Z,99918.66
2023-05-16T22:43:28.426Z,99913.13
2023-05-16T22:45:55.348Z,99909.22
2023-05-16T22:48:22.036Z,99917.16
2023-05-16T22:50:48.622Z,99922.09
2023-05-16T22:53:15.074Z,99929.94
2023-05-16T22:55:41.904Z,99929.94
2023-05-16T22:58:08.859Z,99939.47
2023-05-16T23:00:35.474Z,99935.75
2023-05-16T23:03:02.426Z,99939.16
2023-05-16T23:05:29.320Z,99936.81
2023-05-16T23:07:55.927Z,99946.22
2023-05-16T23:10:22.833Z,99947.94
2023-05-16T23:12:49.400Z,99949.84
2023-05-16T23:15:15.904Z,99954.56
2023-05-16T23:17:42.483Z,99953.47
2023-05-16T23:20:09.341Z,99955.94
2023-05-16T23:22:35.765Z,99958.94
2023-05-16T23:25:02.916Z,99952.41
2023-05-16T23:27:29.573Z,99960.50
2023-05-16T23:29:56.040Z,99956.78
2023-05-16T23:32:22.695Z,99958.19
2023-05-16T23:34:49.957Z,99963.00
2023-05-16T23:37:16.413Z,99965.97
2023-05-16T23:39:44.167Z,99960.00
2023-05-16T23:42:11.080Z,99957.75
2023-05-16T23:44:39.572Z,99962.56
2023-05-16T23:47:06.882Z,99962.13
2023-05-16T23:49:33.341Z,99969.47
2023-05-16T23:52:01.032Z,99975.25
2023-05-16T23:54:27.732Z,99974.16
2023-05-16T23:56:54.616Z,99976.25
2023-05-16T23:59:21.515Z,99982.22
